Time;durP1;ratioP1;P1;durP2;ratioP2;P2;SDS_P1;SDS_P2;PMS_P1;PMS_P2;Temp;Humidity;BMP_temperature;BMP_pressure;BME280_temperature;BME280_humidity;BME280_pressure;Samples;Min_cycle;Max_cycle;Signal;HPM_P1;HPM_P2
2022/12/05 00:01:53;;;;;;;7.00;6.30;;;4.90;99.90;;;;;;4945693;29;20235;-84
2022/12/05 00:04:18;;;;;;;7.13;6.43;;;4.80;99.90;;;;;;4944584;29;20242;-84
2022/12/05 00:06:44;;;;;;;8.23;6.50;;;4.80;99.90;;;;;;4938014;29;20184;-85
2022/12/05 00:09:12;;;;;;;8.33;7.37;;;4.80;99.90;;;;;;4920860;29;20217;-85
2022/12/05 00:11:41;;;;;;;9.33;7.27;;;4.90;99.90;;;;;;4937553;29;20189;-85
2022/12/05 00:14:08;;;;;;;8.47;6.70;;;4.90;99.90;;;;;;4937607;29;20543;-83
2022/12/05 00:16:36;;;;;;;8.50;7.20;;;4.90;99.90;;;;;;4937761;29;20258;-82
2022/12/05 00:19:04;;;;;;;7.73;6.70;;;5.00;99.90;;;;;;4937869;29;20179;-82
2022/12/05 00:21:33;;;;;;;9.50;7.37;;;5.00;99.90;;;;;;4937557;29;20198;-84
2022/12/05 00:24:00;;;;;;;10.03;7.53;;;5.00;99.90;;;;;;4937547;29;20187;-85
2022/12/05 00:26:27;;;;;;;9.13;7.13;;;5.00;99.90;;;;;;4937258;29;20653;-79
2022/12/05 00:28:53;;;;;;;8.20;6.87;;;5.00;99.90;;;;;;4919930;29;20185;-83
2022/12/05 00:31:22;;;;;;;9.63;7.47;;;5.00;99.90;;;;;;4937115;29;20177;-82
2022/12/05 00:33:48;;;;;;;9.73;8.27;;;4.90;99.90;;;;;;4938546;29;20179;-81
2022/12/05 00:36:26;;;;;;;10.33;8.33;;;4.90;99.90;;;;;;4937400;29;20217;-83
2022/12/05 00:38:53;;;;;;;10.10;7.87;;;4.90;99.90;;;;;;4937090;29;20531;-86
2022/12/05 00:41:22;;;;;;;10.67;7.93;;;4.90;99.90;;;;;;4937123;29;20199;-86
2022/12/05 00:43:48;;;;;;;9.50;7.60;;;4.90;99.90;;;;;;4937305;29;20171;-84
2022/12/05 00:46:17;;;;;;;9.80;7.17;;;5.00;99.90;;;;;;4922149;29;20179;-85
2022/12/05 00:48:43;;;;;;;11.73;8.73;;;5.00;99.90;;;;;;4940229;29;20179;-85
2022/12/05 00:51:17;;;;;;;10.20;7.97;;;5.10;99.90;;;;;;4941921;29;20645;-84
2022/12/05 00:53:45;;;;;;;10.47;8.77;;;5.00;99.90;;;;;;4941936;29;20186;-82
2022/12/05 00:56:16;;;;;;;11.20;8.70;;;5.00;99.90;;;;;;4950324;29;20191;-83
2022/12/05 00:58:43;;;;;;;12.57;9.00;;;5.00;99.90;;;;;;4944067;29;20164;-83
2022/12/05 01:01:17;;;;;;;10.80;8.07;;;5.00;99.90;;;;;;4938119;29;20223;-85
2022/12/05 01:03:44;;;;;;;12.57;8.93;;;5.00;99.90;;;;;;4937048;29;20200;-79
2022/12/05 01:06:12;;;;;;;13.63;9.20;;;5.00;99.90;;;;;;4936714;29;20171;-84
2022/12/05 01:08:38;;;;;;;11.40;8.20;;;5.00;99.90;;;;;;4936589;29;20206;-84
2022/12/05 01:11:05;;;;;;;12.37;8.23;;;5.00;99.90;;;;;;4939432;29;20638;-83
2022/12/05 01:13:31;;;;;;;10.00;7.93;;;4.90;99.90;;;;;;4937313;29;20203;-84
2022/12/05 01:15:57;;;;;;;10.90;7.70;;;5.00;99.90;;;;;;4936610;29;20239;-85
2022/12/05 01:18:23;;;;;;;10.67;8.70;;;4.90;99.90;;;;;;4936580;29;20255;-85
2022/12/05 01:20:50;;;;;;;11.57;7.97;;;4.90;99.90;;;;;;4943957;29;20184;-82
2022/12/05 01:23:16;;;;;;;10.90;8.33;;;4.90;99.90;;;;;;4923703;29;20190;-81
2022/12/05 01:25:45;;;;;;;10.63;8.43;;;4.90;99.90;;;;;;4936416;29;20184;-85
2022/12/05 01:28:11;;;;;;;14.50;9.37;;;4.90;99.90;;;;;;4938885;29;20207;-83
2022/12/05 01:30:38;;;;;;;13.50;8.83;;;4.90;99.90;;;;;;4944730;29;20532;-83
2022/12/05 01:33:05;;;;;;;12.10;8.40;;;4.90;99.90;;;;;;4947053;29;20180;-84
2022/12/05 01:35:32;;;;;;;12.47;8.77;;;4.90;99.90;;;;;;4936353;29;20301;-84
2022/12/05 01:37:58;;;;;;;13.13;9.30;;;5.00;99.90;;;;;;4919609;29;20178;-85
2022/12/05 01:40:23;;;;;;;13.03;8.33;;;5.00;99.90;;;;;;4936317;29;20263;-83
2022/12/05 01:42:49;;;;;;;14.10;9.47;;;5.00;99.90;;;;;;4923819;29;20192;-84
2022/12/05 01:45:21;;;;;;;12.97;9.07;;;5.00;99.90;;;;;;4921019;29;20182;-84
2022/12/05 01:47:47;;;;;;;11.13;8.33;;;5.00;99.90;;;;;;4937013;29;20613;-85
2022/12/05 01:50:13;;;;;;;14.30;9.30;;;5.00;99.90;;;;;;4937434;29;20174;-85
2022/12/05 01:52:40;;;;;;;13.80;9.07;;;5.00;99.90;;;;;;4936277;29;20752;-84
2022/12/05 01:55:10;;;;;;;11.60;8.70;;;5.00;99.90;;;;;;4935725;29;20210;-85
2022/12/05 01:57:36;;;;;;;14.03;9.00;;;5.00;99.90;;;;;;4936107;29;20176;-83
2022/12/05 02:00:10;;;;;;;12.50;8.30;;;4.90;99.90;;;;;;4918558;29;20228;-82
2022/12/05 02:02:36;;;;;;;12.27;9.10;;;4.90;99.90;;;;;;4923794;29;20196;-83
2022/12/05 02:05:06;;;;;;;12.00;8.60;;;4.90;99.90;;;;;;4944647;29;20268;-83
2022/12/05 02:07:33;;;;;;;12.67;8.70;;;4.80;99.90;;;;;;4938581;29;20159;-82
2022/12/05 02:09:59;;;;;;;15.93;9.80;;;4.90;99.90;;;;;;4918802;29;20184;-84
2022/12/05 02:12:26;;;;;;;12.87;8.47;;;4.90;99.90;;;;;;4935662;29;20177;-85
2022/12/05 02:14:55;;;;;;;12.87;8.83;;;4.90;99.90;;;;;;4936092;29;20182;-82
2022/12/05 02:17:26;;;;;;;14.00;9.17;;;4.90;99.90;;;;;;4935922;29;20188;-83
2022/12/05 02:20:04;;;;;;;11.57;8.27;;;4.90;99.90;;;;;;4918718;29;20529;-86
2022/12/05 02:22:49;;;;;;;13.67;8.97;;;5.00;99.90;;;;;;4935727;29;20545;-84
2022/12/05 02:25:49;;;;;;;11.87;8.17;;;4.90;99.90;;;;;;4935726;29;20252;-85
2022/12/05 02:28:43;;;;;;;13.37;9.37;;;5.00;99.90;;;;;;4935414;29;20199;-83
2022/12/05 02:31:16;;;;;;;14.00;8.30;;;4.90;99.90;;;;;;4936116;29;20266;-85
2022/12/05 02:34:26;;;;;;;12.50;8.80;;;5.00;99.90;;;;;;4937273;29;20168;-82
2022/12/05 02:37:12;;;;;;;14.63;8.77;;;4.90;99.90;;;;;;4875719;29;20256;-83
2022/12/05 02:40:02;;;;;;;12.40;8.73;;;4.90;99.90;;;;;;4937579;29;20192;-85
2022/12/05 02:42:38;;;;;;;14.30;9.00;;;4.80;99.90;;;;;;4937938;29;20215;-81
2022/12/05 02:45:14;;;;;;;14.83;8.70;;;4.80;99.90;;;;;;4937855;29;20183;-84
2022/12/05 02:47:49;;;;;;;16.57;9.90;;;4.80;99.90;;;;;;4939127;29;20671;-84
2022/12/05 02:50:20;;;;;;;14.10;9.27;;;4.80;99.90;;;;;;4926712;29;20171;-80
2022/12/05 02:52:49;;;;;;;13.07;8.97;;;4.80;99.90;;;;;;4928085;29;20659;-81
2022/12/05 02:55:17;;;;;;;14.93;9.50;;;4.80;99.90;;;;;;4920095;29;20208;-84
2022/12/05 02:57:50;;;;;;;14.97;8.90;;;4.90;99.90;;;;;;4935509;29;20175;-83
2022/12/05 03:00:16;;;;;;;15.10;9.57;;;4.90;99.90;;;;;;4935231;29;20222;-81
2022/12/05 03:02:42;;;;;;;15.93;9.80;;;4.80;99.90;;;;;;4943461;29;20180;-82
2022/12/05 03:05:29;;;;;;;14.17;9.47;;;4.80;99.90;;;;;;4938370;29;20186;-81
2022/12/05 03:07:59;;;;;;;17.03;10.47;;;4.80;99.90;;;;;;4935633;29;20220;-80
2022/12/05 03:10:28;;;;;;;15.03;9.83;;;4.90;99.90;;;;;;4935418;29;20184;-83
2022/12/05 03:12:59;;;;;;;15.70;10.40;;;4.80;99.90;;;;;;4935115;29;20172;-80
2022/12/05 03:15:30;;;;;;;17.20;10.20;;;4.80;99.90;;;;;;4935153;29;20584;-80
2022/12/05 03:18:05;;;;;;;15.13;10.33;;;4.70;99.90;;;;;;4938222;29;20573;-85
2022/12/05 03:20:42;;;;;;;13.37;9.53;;;4.80;99.90;;;;;;4942633;29;20190;-83
2022/12/05 03:23:18;;;;;;;15.20;9.60;;;4.80;99.90;;;;;;4938940;29;20220;-84
2022/12/05 03:26:03;;;;;;;14.30;9.33;;;4.80;99.90;;;;;;4938478;29;20252;-83
2022/12/05 03:28:44;;;;;;;14.23;9.60;;;4.80;99.90;;;;;;4938425;29;20180;-83
2022/12/05 03:31:13;;;;;;;16.40;9.13;;;4.80;99.90;;;;;;4938616;29;20173;-85
2022/12/05 03:33:46;;;;;;;16.07;9.63;;;4.90;99.90;;;;;;4939342;29;20203;-84
2022/12/05 03:36:17;;;;;;;15.70;8.90;;;4.90;99.90;;;;;;4940409;29;20214;-84
2022/12/05 03:38:46;;;;;;;13.57;8.73;;;4.90;99.90;;;;;;4943710;29;20212;-82
2022/12/05 03:41:32;;;;;;;11.93;8.40;;;4.90;99.90;;;;;;4941494;29;20267;-84
2022/12/05 03:44:06;;;;;;;14.90;8.67;;;4.90;99.90;;;;;;4921022;29;20184;-84
2022/12/05 03:46:40;;;;;;;13.73;8.80;;;4.90;99.90;;;;;;4938167;29;20187;-84
2022/12/05 03:49:30;;;;;;;13.17;8.70;;;4.90;99.90;;;;;;4938238;29;20201;-84
2022/12/05 03:52:19;;;;;;;12.50;8.13;;;4.90;99.90;;;;;;4938221;29;20544;-85
2022/12/05 03:54:56;;;;;;;15.23;9.13;;;4.90;99.90;;;;;;4937993;29;20161;-85
2022/12/05 03:57:34;;;;;;;16.43;9.13;;;5.00;99.90;;;;;;4938309;29;20182;-84
2022/12/05 04:00:17;;;;;;;13.53;7.83;;;5.00;99.90;;;;;;4937619;29;20231;-84
2022/12/05 04:02:46;;;;;;;12.47;7.97;;;5.00;99.90;;;;;;4938122;29;20575;-84
2022/12/05 04:05:25;;;;;;;12.77;8.23;;;5.00;99.90;;;;;;4937691;29;20247;-85
2022/12/05 04:07:57;;;;;;;12.67;8.07;;;5.00;99.90;;;;;;4937640;29;20223;-85
2022/12/05 04:10:28;;;;;;;10.90;7.73;;;5.00;99.90;;;;;;4938501;29;20177;-85
2022/12/05 04:12:56;;;;;;;16.40;9.40;;;5.00;99.90;;;;;;4937914;29;20185;-82
2022/12/05 04:17:02;;;;;;;15.77;9.70;;;5.00;99.90;;;;;;4922298;29;20623;-84
2022/12/05 04:18:17;;;;;;;17.67;9.77;;;5.00;99.90;;;;;;4937502;29;20250;-86
2022/12/05 04:23:28;;;;;;;19.50;11.27;;;5.00;99.90;;;;;;4946601;29;20187;-85
2022/12/05 04:26:20;;;;;;;18.57;10.23;;;5.00;99.90;;;;;;4937640;29;20544;-81
2022/12/05 04:28:56;;;;;;;20.53;11.10;;;5.00;99.90;;;;;;4937436;29;20165;-82
2022/12/05 04:31:27;;;;;;;19.47;10.20;;;4.90;99.90;;;;;;4937682;29;20172;-80
2022/12/05 04:34:01;;;;;;;19.80;10.63;;;5.00;99.90;;;;;;4946915;29;20164;-83
2022/12/05 04:36:37;;;;;;;20.40;11.30;;;5.00;99.90;;;;;;4940790;29;20198;-82
2022/12/05 04:39:08;;;;;;;18.77;10.27;;;5.00;99.90;;;;;;4940930;29;20199;-81
2022/12/05 04:42:03;;;;;;;17.93;10.87;;;5.00;99.90;;;;;;4941404;29;20204;-81
2022/12/05 04:44:36;;;;;;;17.70;10.30;;;5.00;99.90;;;;;;4947740;29;20189;-78
2022/12/05 04:47:06;;;;;;;18.73;10.97;;;5.00;99.90;;;;;;4951437;29;20165;-82
2022/12/05 04:49:33;;;;;;;17.47;10.67;;;5.00;99.90;;;;;;4939237;29;20633;-81
2022/12/05 04:52:03;;;;;;;20.80;10.60;;;5.00;99.90;;;;;;4919993;29;20196;-80
2022/12/05 04:54:49;;;;;;;18.90;10.10;;;4.90;99.90;;;;;;4936891;29;20189;-84
2022/12/05 04:57:29;;;;;;;16.97;9.70;;;4.90;99.90;;;;;;4936808;29;20659;-85
2022/12/05 04:59:55;;;;;;;17.80;9.83;;;5.00;99.90;;;;;;4936416;29;20226;-83
2022/12/05 05:02:36;;;;;;;18.50;10.23;;;5.00;99.90;;;;;;4936894;29;20303;-86
2022/12/05 05:05:09;;;;;;;16.27;10.33;;;5.00;99.90;;;;;;4936757;29;20174;-84
2022/12/05 05:07:56;;;;;;;15.33;9.13;;;5.00;99.90;;;;;;4936941;29;20165;-83
2022/12/05 05:10:31;;;;;;;15.20;9.13;;;5.00;99.90;;;;;;4936479;29;20235;-84
2022/12/05 05:12:57;;;;;;;14.40;9.10;;;4.90;99.90;;;;;;4936286;29;20168;-84
2022/12/05 05:15:23;;;;;;;15.10;9.40;;;5.00;99.90;;;;;;4936331;29;20220;-85
2022/12/05 05:17:48;;;;;;;14.57;9.00;;;4.90;99.90;;;;;;4936021;29;20176;-86
2022/12/05 05:20:23;;;;;;;14.97;9.20;;;5.00;99.90;;;;;;4937261;29;20233;-85
2022/12/05 05:22:50;;;;;;;15.47;9.43;;;5.00;99.90;;;;;;4936396;29;20187;-86
2022/12/05 05:25:17;;;;;;;14.50;8.43;;;5.00;99.90;;;;;;4937809;29;20575;-84
2022/12/05 05:27:42;;;;;;;13.93;9.07;;;5.00;99.90;;;;;;4918932;29;20187;-84
2022/12/05 05:30:08;;;;;;;15.80;9.27;;;5.00;99.90;;;;;;4936490;29;20228;-85
2022/12/05 05:32:34;;;;;;;12.00;7.93;;;5.00;99.90;;;;;;4936316;29;20228;-85
2022/12/05 05:35:00;;;;;;;15.90;9.47;;;5.00;99.90;;;;;;4936056;29;20531;-78
2022/12/05 05:37:26;;;;;;;16.60;8.80;;;4.90;99.90;;;;;;4935884;29;20581;-82
2022/12/05 05:39:51;;;;;;;15.43;8.97;;;5.00;99.90;;;;;;4918807;29;20179;-79
2022/12/05 05:42:17;;;;;;;14.10;8.77;;;5.00;99.90;;;;;;4934882;29;20182;-78
2022/12/05 05:44:43;;;;;;;15.73;9.10;;;4.90;99.90;;;;;;4936034;29;20195;-80
2022/12/05 05:47:09;;;;;;;15.60;9.50;;;4.90;99.90;;;;;;4935833;29;20703;-80
2022/12/05 05:49:34;;;;;;;12.77;8.90;;;4.90;99.90;;;;;;4935985;29;20187;-80
2022/12/05 05:52:00;;;;;;;13.97;8.67;;;5.00;99.90;;;;;;4936229;29;20334;-81
2022/12/05 05:54:26;;;;;;;14.07;8.53;;;4.90;99.90;;;;;;4936645;29;20250;-78
2022/12/05 05:56:52;;;;;;;11.47;8.07;;;4.90;99.90;;;;;;4936552;29;20294;-83
2022/12/05 05:59:17;;;;;;;12.90;8.10;;;4.90;99.90;;;;;;4936121;29;20540;-86
2022/12/05 06:01:43;;;;;;;15.17;8.43;;;4.80;99.90;;;;;;4935980;29;20704;-84
2022/12/05 06:04:09;;;;;;;12.50;8.07;;;4.80;99.90;;;;;;4943517;29;20184;-82
2022/12/05 06:06:34;;;;;;;13.03;8.37;;;4.80;99.90;;;;;;4937989;29;20172;-84
2022/12/05 06:09:00;;;;;;;14.70;8.50;;;4.80;99.90;;;;;;4935993;29;20176;-83
2022/12/05 06:11:27;;;;;;;15.70;9.03;;;4.90;99.90;;;;;;4936045;29;20176;-84
2022/12/05 06:13:59;;;;;;;11.93;8.33;;;4.90;99.90;;;;;;4935749;29;20192;-83
2022/12/05 06:16:25;;;;;;;12.83;8.63;;;4.90;99.90;;;;;;4935567;29;20207;-80
2022/12/05 06:18:51;;;;;;;13.33;8.37;;;4.90;99.90;;;;;;4935683;29;20176;-84
2022/12/05 06:21:18;;;;;;;16.63;8.50;;;5.00;99.90;;;;;;4935546;29;20235;-84
2022/12/05 06:23:44;;;;;;;14.67;8.87;;;5.00;99.90;;;;;;4935504;29;20253;-86
2022/12/05 06:26:16;;;;;;;14.37;9.27;;;5.00;99.90;;;;;;4902858;29;20184;-83
2022/12/05 06:28:43;;;;;;;13.97;8.70;;;5.10;99.90;;;;;;4935618;29;20169;-84
2022/12/05 06:31:11;;;;;;;11.33;8.07;;;5.20;99.90;;;;;;4936858;29;20168;-84
2022/12/05 06:33:38;;;;;;;13.33;9.23;;;5.20;99.90;;;;;;4941005;29;20181;-82
2022/12/05 06:36:06;;;;;;;12.17;8.60;;;5.20;99.90;;;;;;4940876;29;20209;-84
2022/12/05 06:38:32;;;;;;;12.27;8.53;;;5.20;99.90;;;;;;4938789;29;20259;-81
2022/12/05 06:40:59;;;;;;;11.57;8.53;;;5.20;99.90;;;;;;4923575;29;20204;-81
2022/12/05 06:43:24;;;;;;;14.83;8.43;;;5.20;99.90;;;;;;4946600;29;20179;-80
2022/12/05 06:45:50;;;;;;;14.43;9.77;;;5.20;99.90;;;;;;4936254;29;20184;-85
2022/12/05 06:48:16;;;;;;;12.23;8.57;;;5.10;99.90;;;;;;4935488;29;20175;-82
2022/12/05 06:50:51;;;;;;;12.13;8.33;;;5.10;99.90;;;;;;4935144;29;20175;-83
2022/12/05 06:53:19;;;;;;;12.07;8.10;;;5.10;99.90;;;;;;4938331;29;20183;-82
2022/12/05 06:55:54;;;;;;;10.57;7.50;;;5.10;99.90;;;;;;4940209;29;20211;-84
2022/12/05 06:58:20;;;;;;;10.07;6.97;;;5.20;99.90;;;;;;4939626;29;20501;-83
2022/12/05 07:03:30;;;;;;;8.80;7.13;;;5.20;99.90;;;;;;4939272;29;20171;-84
2022/12/05 07:06:00;;;;;;;13.50;8.47;;;5.20;99.90;;;;;;4939216;29;20629;-84
2022/12/05 07:08:25;;;;;;;11.37;7.83;;;5.20;99.90;;;;;;4938888;29;20175;-83
2022/12/05 07:10:52;;;;;;;12.17;8.30;;;5.30;99.90;;;;;;4921861;29;20676;-85
2022/12/05 07:13:18;;;;;;;10.73;8.07;;;5.30;99.90;;;;;;4922559;29;20726;-87
2022/12/05 07:15:46;;;;;;;15.80;8.30;;;5.30;99.90;;;;;;4938644;29;20677;-79
2022/12/05 07:18:14;;;;;;;10.57;7.47;;;5.40;99.90;;;;;;4923514;29;20592;-78
2022/12/05 07:20:40;;;;;;;9.77;7.57;;;5.40;99.90;;;;;;4941182;29;20647;-85
2022/12/05 07:23:06;;;;;;;12.70;7.63;;;5.30;99.90;;;;;;4923664;29;20279;-85
2022/12/05 07:25:32;;;;;;;15.43;8.70;;;5.40;99.90;;;;;;4946209;29;20259;-81
2022/12/05 07:27:58;;;;;;;14.43;9.03;;;5.40;99.90;;;;;;4941274;29;20216;-86
2022/12/05 07:30:23;;;;;;;11.50;8.07;;;5.40;99.90;;;;;;4939824;29;20232;-86
2022/12/05 07:32:49;;;;;;;10.13;8.17;;;5.30;99.90;;;;;;4939148;29;20652;-84
2022/12/05 07:35:15;;;;;;;13.30;7.87;;;5.30;99.90;;;;;;4941034;29;20186;-85
2022/12/05 07:37:41;;;;;;;13.17;8.73;;;5.40;99.90;;;;;;4925711;29;20176;-82
2022/12/05 07:40:07;;;;;;;11.73;8.60;;;5.50;99.90;;;;;;4938851;29;20588;-83
2022/12/05 07:42:33;;;;;;;12.43;8.73;;;5.40;99.90;;;;;;4938313;29;20239;-83
2022/12/05 07:44:59;;;;;;;11.07;8.60;;;5.40;99.90;;;;;;4938441;29;20644;-81
2022/12/05 07:47:25;;;;;;;10.60;8.33;;;5.40;99.90;;;;;;4924809;29;20226;-83
2022/12/05 07:49:50;;;;;;;16.43;9.20;;;5.40;99.90;;;;;;4943760;29;20183;-82
2022/12/05 07:52:16;;;;;;;12.37;8.03;;;5.40;99.90;;;;;;4939335;29;20177;-86
2022/12/05 07:54:42;;;;;;;11.90;8.53;;;5.50;99.90;;;;;;4938062;29;20181;-84
2022/12/05 07:57:08;;;;;;;11.83;8.00;;;5.50;99.90;;;;;;4938166;29;20209;-83
2022/12/05 07:59:33;;;;;;;12.77;9.07;;;5.60;99.90;;;;;;4938180;29;20172;-82
2022/12/05 08:01:59;;;;;;;14.30;9.00;;;5.70;99.90;;;;;;4937607;29;20201;-82
2022/12/05 08:04:25;;;;;;;10.87;8.73;;;5.80;99.90;;;;;;4920096;29;20177;-83
2022/12/05 08:06:51;;;;;;;13.20;9.43;;;5.90;99.90;;;;;;4937715;29;20183;-85
2022/12/05 08:09:16;;;;;;;12.57;8.40;;;5.90;99.90;;;;;;4938238;29;20176;-82
2022/12/05 08:11:42;;;;;;;13.87;9.13;;;5.90;99.90;;;;;;4938192;29;20234;-82
2022/12/05 08:14:09;;;;;;;12.53;8.17;;;5.90;99.90;;;;;;4938918;29;20642;-84
2022/12/05 08:16:34;;;;;;;13.43;8.47;;;5.90;99.90;;;;;;4936498;29;20215;-85
2022/12/05 08:19:03;;;;;;;14.03;9.17;;;5.90;99.90;;;;;;4937230;29;20181;-84
2022/12/05 08:21:30;;;;;;;11.33;8.63;;;6.00;99.90;;;;;;4920902;29;20186;-81
2022/12/05 08:23:56;;;;;;;14.27;9.77;;;6.10;99.90;;;;;;4941653;29;20192;-82
2022/12/05 08:26:32;;;;;;;13.57;9.90;;;6.10;99.90;;;;;;4949497;29;20259;-84
2022/12/05 08:29:02;;;;;;;13.63;10.07;;;6.10;99.90;;;;;;4924378;29;20171;-84
2022/12/05 08:31:30;;;;;;;13.77;9.80;;;6.10;99.90;;;;;;4940418;29;20176;-82
2022/12/05 08:33:58;;;;;;;14.17;9.70;;;6.00;99.90;;;;;;4923961;29;20259;-83
2022/12/05 08:36:25;;;;;;;13.97;9.13;;;6.00;99.90;;;;;;4949153;29;20219;-83
2022/12/05 08:38:58;;;;;;;12.03;9.03;;;5.90;99.90;;;;;;4945522;29;20177;-84
2022/12/05 08:41:27;;;;;;;13.03;9.30;;;6.10;99.90;;;;;;4938581;29;20167;-85
2022/12/05 08:43:54;;;;;;;13.43;8.77;;;6.20;99.90;;;;;;4937870;29;20169;-84
2022/12/05 08:46:20;;;;;;;11.37;8.73;;;6.20;99.90;;;;;;4938925;29;20183;-83
2022/12/05 08:48:46;;;;;;;11.30;8.83;;;6.20;99.90;;;;;;4938334;29;20644;-85
2022/12/05 08:51:13;;;;;;;12.53;9.70;;;6.30;99.90;;;;;;4937697;29;20175;-83
2022/12/05 08:53:39;;;;;;;13.87;9.60;;;6.30;99.90;;;;;;4941463;29;20172;-84
2022/12/05 08:56:08;;;;;;;12.83;9.50;;;6.20;99.90;;;;;;4942548;29;20555;-86
2022/12/05 08:58:34;;;;;;;12.70;9.17;;;6.20;99.90;;;;;;4938009;29;20177;-85
2022/12/05 09:01:20;;;;;;;11.37;8.90;;;6.20;99.90;;;;;;4938031;29;20233;-81
2022/12/05 09:03:47;;;;;;;12.47;8.57;;;6.20;99.90;;;;;;4939734;29;20666;-77
2022/12/05 09:06:19;;;;;;;14.13;9.30;;;6.30;99.90;;;;;;4940034;29;20175;-82
2022/12/05 09:08:46;;;;;;;14.30;10.20;;;6.30;99.90;;;;;;4942814;29;20165;-85
2022/12/05 09:11:16;;;;;;;12.93;9.43;;;6.30;99.90;;;;;;4938678;29;20234;-82
2022/12/05 09:13:42;;;;;;;12.83;9.33;;;6.30;99.90;;;;;;4937505;29;20662;-86
2022/12/05 09:16:10;;;;;;;15.27;10.90;;;6.20;99.90;;;;;;4938778;29;20208;-84
2022/12/05 09:18:36;;;;;;;17.87;11.57;;;6.20;99.90;;;;;;4938673;29;20192;-86
2022/12/05 09:21:09;;;;;;;13.90;9.80;;;6.10;99.90;;;;;;4920307;29;20182;-83
2022/12/05 09:23:35;;;;;;;12.07;9.80;;;6.20;99.90;;;;;;4920427;29;20178;-86
2022/12/05 09:26:04;;;;;;;15.63;10.43;;;6.20;99.90;;;;;;4937386;29;20241;-84
2022/12/05 09:28:31;;;;;;;16.67;10.20;;;6.20;99.90;;;;;;4947562;29;20183;-81
2022/12/05 09:30:58;;;;;;;13.40;9.97;;;6.10;99.90;;;;;;4926993;29;20276;-83
2022/12/05 09:33:24;;;;;;;13.13;8.30;;;6.30;99.90;;;;;;4937475;29;20168;-85
2022/12/05 09:35:50;;;;;;;13.00;9.20;;;6.30;99.90;;;;;;4936805;29;20207;-85
2022/12/05 09:38:16;;;;;;;11.90;8.47;;;6.30;99.90;;;;;;4937183;29;20177;-82
2022/12/05 09:40:42;;;;;;;10.10;8.37;;;6.30;99.90;;;;;;4937228;29;20180;-81
2022/12/05 09:43:38;;;;;;;12.90;9.60;;;6.40;99.90;;;;;;4937008;29;20177;-86
2022/12/05 09:46:23;;;;;;;12.03;8.80;;;6.50;99.90;;;;;;4892664;29;20194;-85
2022/12/05 09:48:50;;;;;;;12.63;9.17;;;6.60;99.90;;;;;;4936510;29;20197;-83
2022/12/05 09:51:16;;;;;;;11.70;9.10;;;6.60;99.90;;;;;;4919882;29;20207;-83
2022/12/05 09:53:43;;;;;;;13.50;8.57;;;6.70;99.90;;;;;;4919574;29;20718;-85
2022/12/05 09:56:29;;;;;;;12.70;8.23;;;6.70;99.90;;;;;;4919272;29;20306;-84
2022/12/05 09:58:59;;;;;;;12.77;9.10;;;6.70;99.90;;;;;;4936613;29;20165;-86
2022/12/05 10:01:56;;;;;;;12.00;8.53;;;6.70;99.90;;;;;;4919395;29;20230;-85
2022/12/05 10:04:34;;;;;;;13.37;9.57;;;6.80;99.90;;;;;;4937505;29;20653;-85
2022/12/05 10:07:24;;;;;;;12.37;8.83;;;6.80;99.90;;;;;;4936875;29;20195;-84
2022/12/05 10:09:56;;;;;;;11.27;8.70;;;6.70;99.90;;;;;;4936899;29;20177;-84
2022/12/05 10:12:52;;;;;;;11.00;8.23;;;6.60;99.90;;;;;;4923544;29;20268;-84
2022/12/05 10:15:37;;;;;;;11.57;8.40;;;6.60;99.90;;;;;;4940424;29;20177;-84
2022/12/05 10:18:21;;;;;;;13.10;8.27;;;6.60;99.90;;;;;;4938357;29;20172;-82
2022/12/05 10:20:51;;;;;;;13.73;9.37;;;6.60;99.90;;;;;;4939486;29;20161;-83
2022/12/05 10:23:28;;;;;;;11.77;8.80;;;6.60;99.90;;;;;;4925165;29;20268;-83
2022/12/05 10:26:01;;;;;;;11.87;8.57;;;6.60;99.90;;;;;;4940481;29;20625;-81
2022/12/05 10:28:35;;;;;;;11.07;8.43;;;6.60;99.90;;;;;;4953438;29;20184;-84
2022/12/05 10:31:06;;;;;;;11.70;8.03;;;6.70;99.90;;;;;;4946383;29;20274;-85
2022/12/05 10:33:39;;;;;;;15.67;9.47;;;6.80;99.90;;;;;;4951631;29;20177;-85
2022/12/05 10:36:24;;;;;;;14.60;8.77;;;6.90;99.90;;;;;;4941050;29;20219;-85
2022/12/05 10:38:50;;;;;;;12.17;8.50;;;6.90;99.90;;;;;;4940445;29;20164;-83
2022/12/05 10:41:16;;;;;;;11.17;8.33;;;6.80;99.90;;;;;;4940254;29;20210;-84
2022/12/05 10:43:44;;;;;;;13.73;8.83;;;6.80;99.90;;;;;;4939872;29;20178;-80
2022/12/05 10:46:12;;;;;;;12.23;9.40;;;7.00;99.90;;;;;;4939313;29;20247;-84
2022/12/05 10:48:40;;;;;;;12.93;8.50;;;7.10;99.90;;;;;;4939664;29;20196;-77
2022/12/05 10:51:10;;;;;;;12.67;8.87;;;7.30;99.90;;;;;;4923076;29;20550;-80
2022/12/05 10:53:50;;;;;;;10.57;8.10;;;7.30;99.90;;;;;;4940904;29;20180;-84
2022/12/05 10:56:39;;;;;;;11.23;8.63;;;7.20;99.90;;;;;;4941129;29;20290;-84
2022/12/05 10:59:08;;;;;;;10.87;8.77;;;7.30;99.90;;;;;;4940985;29;20178;-85
2022/12/05 11:01:36;;;;;;;11.53;8.80;;;7.20;99.90;;;;;;4941219;29;20221;-83
2022/12/05 11:04:17;;;;;;;12.03;8.93;;;7.30;99.90;;;;;;4939384;29;20199;-83
2022/12/05 11:06:50;;;;;;;12.57;9.13;;;7.20;99.90;;;;;;4942795;29;20165;-83
2022/12/05 11:09:24;;;;;;;13.60;8.77;;;7.20;99.90;;;;;;4932315;29;20305;-85
2022/12/05 11:12:21;;;;;;;12.23;8.57;;;7.30;99.90;;;;;;4939567;29;20262;-83
2022/12/05 11:14:54;;;;;;;10.60;8.90;;;7.30;99.90;;;;;;4939301;29;20175;-85
2022/12/05 11:17:34;;;;;;;11.40;8.33;;;7.40;99.90;;;;;;4938976;29;20210;-83
2022/12/05 11:20:00;;;;;;;12.27;8.97;;;7.40;99.90;;;;;;4921979;29;20176;-84
2022/12/05 11:22:33;;;;;;;12.07;8.60;;;7.40;99.90;;;;;;4940157;29;20605;-84
2022/12/05 11:24:59;;;;;;;11.33;8.63;;;7.30;99.90;;;;;;4939127;29;20171;-84
2022/12/05 11:27:30;;;;;;;11.43;8.30;;;7.30;99.90;;;;;;4948549;29;20734;-84
2022/12/05 11:30:10;;;;;;;11.47;8.60;;;7.20;99.90;;;;;;4941052;29;20203;-84
2022/12/05 11:32:36;;;;;;;11.37;8.57;;;7.20;99.90;;;;;;4939103;29;20168;-83
2022/12/05 11:35:26;;;;;;;10.33;7.77;;;7.20;99.90;;;;;;4938762;29;20183;-84
2022/12/05 11:37:52;;;;;;;13.90;8.77;;;7.20;99.90;;;;;;4926836;29;20207;-85
2022/12/05 11:40:49;;;;;;;11.63;8.30;;;7.20;99.90;;;;;;4938678;29;20168;-86
2022/12/05 11:43:27;;;;;;;13.03;8.10;;;7.10;99.90;;;;;;4939012;29;20164;-83
2022/12/05 11:45:59;;;;;;;13.40;8.60;;;7.10;99.90;;;;;;4938596;29;20651;-84
2022/12/05 11:48:33;;;;;;;11.63;8.40;;;7.10;99.90;;;;;;4941494;29;20180;-84
2022/12/05 11:51:14;;;;;;;10.87;8.30;;;7.20;99.90;;;;;;4944092;29;20588;-84
2022/12/05 11:53:49;;;;;;;11.67;7.93;;;7.30;99.90;;;;;;4939045;29;20178;-82
2022/12/05 11:56:38;;;;;;;10.67;8.50;;;7.30;99.90;;;;;;4942294;29;20567;-82
2022/12/05 11:59:18;;;;;;;10.50;7.67;;;7.40;99.90;;;;;;4923867;29;20186;-80
2022/12/05 12:01:56;;;;;;;10.30;8.40;;;7.50;99.90;;;;;;4902037;29;20227;-82
2022/12/05 12:04:28;;;;;;;11.03;8.13;;;7.50;99.90;;;;;;4902731;29;20200;-81
2022/12/05 12:07:13;;;;;;;10.63;8.20;;;7.60;99.90;;;;;;4902552;29;20170;-83
2022/12/05 12:09:56;;;;;;;12.07;8.73;;;7.60;99.90;;;;;;4904800;29;20275;-82
2022/12/05 12:12:33;;;;;;;12.53;8.50;;;7.70;99.90;;;;;;4902720;29;20173;-82
2022/12/05 12:15:36;;;;;;;11.93;9.20;;;7.60;99.90;;;;;;4903454;29;20169;-82
2022/12/05 12:18:36;;;;;;;11.70;8.87;;;7.60;99.90;;;;;;4911091;29;20220;-83
2022/12/05 12:21:19;;;;;;;12.13;9.20;;;7.60;99.90;;;;;;4903566;29;20180;-85
2022/12/05 12:23:51;;;;;;;10.67;8.23;;;7.50;99.90;;;;;;4902165;29;20162;-85
2022/12/05 12:26:52;;;;;;;14.13;9.63;;;7.50;99.90;;;;;;4900753;29;20264;-85
2022/12/05 12:29:54;;;;;;;12.37;8.07;;;7.40;99.90;;;;;;4896420;29;20194;-81
2022/12/05 12:32:48;;;;;;;10.33;8.47;;;7.30;99.90;;;;;;4900025;29;20183;-81
2022/12/05 12:35:23;;;;;;;12.07;9.27;;;7.20;99.90;;;;;;4899095;29;20169;-79
2022/12/05 12:38:19;;;;;;;12.20;8.67;;;7.20;99.90;;;;;;4900785;29;20168;-81
2022/12/05 12:40:56;;;;;;;12.20;7.97;;;7.20;99.90;;;;;;4905274;29;20247;-83
2022/12/05 12:43:41;;;;;;;9.90;7.83;;;7.20;99.90;;;;;;4900842;29;20162;-83
2022/12/05 12:46:31;;;;;;;10.90;8.20;;;7.10;99.90;;;;;;4906301;29;20178;-85
2022/12/05 12:49:34;;;;;;;11.30;8.67;;;7.10;99.90;;;;;;4902592;29;20183;-84
2022/12/05 12:52:13;;;;;;;12.10;7.60;;;7.00;99.90;;;;;;4899451;29;20173;-84
2022/12/05 12:55:08;;;;;;;10.73;7.77;;;7.00;99.90;;;;;;4899480;29;20680;-84
2022/12/05 12:57:48;;;;;;;9.83;8.43;;;7.00;99.90;;;;;;4899090;29;20274;-86
2022/12/05 13:00:41;;;;;;;12.17;8.10;;;7.00;99.90;;;;;;4898379;29;20236;-84
2022/12/05 13:03:26;;;;;;;10.27;7.90;;;6.90;99.90;;;;;;4899706;29;20166;-84
2022/12/05 13:06:08;;;;;;;10.20;7.97;;;6.80;99.90;;;;;;4897935;29;20180;-84
2022/12/05 13:09:07;;;;;;;9.80;7.80;;;6.80;99.90;;;;;;4899160;29;20171;-84
2022/12/05 13:11:39;;;;;;;13.50;8.17;;;6.80;99.90;;;;;;4885047;29;20411;-83
2022/12/05 13:14:13;;;;;;;11.30;8.17;;;6.90;99.90;;;;;;4899071;29;20176;-83
2022/12/05 13:16:47;;;;;;;12.63;8.73;;;7.00;99.90;;;;;;4903894;29;20248;-81
2022/12/05 13:19:27;;;;;;;11.47;8.63;;;7.00;99.90;;;;;;4901542;29;20195;-85